sensor_id;sensor_type;location;lat;lon;timestamp;pressure;altitude;pressure_sealevel;temperature;humidity
13235;BME280;6683;48.506;9.050;2024-03-22T00:02:28;98823.81;;;11.77;67.63
13235;BME280;6683;48.506;9.050;2024-03-22T00:05:30;98822.91;;;11.70;67.39
13235;BME280;6683;48.506;9.050;2024-03-22T00:08:32;98825.41;;;11.63;67.80
13235;BME280;6683;48.506;9.050;2024-03-22T00:11:35;98819.66;;;11.60;67.75
13235;BME280;6683;48.506;9.050;2024-03-22T00:14:37;98821.81;;;11.56;68.10
13235;BME280;6683;48.506;9.050;2024-03-22T00:17:39;98824.47;;;11.56;67.89
13235;BME280;6683;48.506;9.050;2024-03-22T00:20:40;98818.72;;;11.53;67.94
13235;BME280;6683;48.506;9.050;2024-03-22T00:23:44;98817.59;;;11.47;68.02
13235;BME280;6683;48.506;9.050;2024-03-22T00:26:47;98817.31;;;11.42;68.11
13235;BME280;6683;48.506;9.050;2024-03-22T00:29:49;98819.81;;;11.36;67.65
13235;BME280;6683;48.506;9.050;2024-03-22T00:32:51;98811.78;;;11.29;67.95
13235;BME280;6683;48.506;9.050;2024-03-22T00:35:53;98815.31;;;11.21;67.92
13235;BME280;6683;48.506;9.050;2024-03-22T00:38:54;98813.50;;;11.14;67.80
13235;BME280;6683;48.506;9.050;2024-03-22T00:41:59;98821.34;;;11.07;67.78
13235;BME280;6683;48.506;9.050;2024-03-22T00:45:00;98815.75;;;11.02;67.87
13235;BME280;6683;48.506;9.050;2024-03-22T00:48:03;98812.00;;;10.97;68.17
13235;BME280;6683;48.506;9.050;2024-03-22T00:51:04;98810.69;;;10.93;67.89
13235;BME280;6683;48.506;9.050;2024-03-22T00:54:06;98805.28;;;10.86;67.96
13235;BME280;6683;48.506;9.050;2024-03-22T00:57:09;98796.41;;;10.79;68.29
13235;BME280;6683;48.506;9.050;2024-03-22T01:00:13;98795.28;;;10.74;68.06
13235;BME280;6683;48.506;9.050;2024-03-22T01:03:14;98797.59;;;10.69;68.40
13235;BME280;6683;48.506;9.050;2024-03-22T01:06:16;98793.47;;;10.66;68.26
13235;BME280;6683;48.506;9.050;2024-03-22T01:09:18;98785.75;;;10.65;68.61
13235;BME280;6683;48.506;9.050;2024-03-22T01:12:21;98789.22;;;10.65;69.06
13235;BME280;6683;48.506;9.050;2024-03-22T01:15:22;98788.03;;;10.68;68.78
13235;BME280;6683;48.506;9.050;2024-03-22T01:18:25;98787.41;;;10.66;68.75
13235;BME280;6683;48.506;9.050;2024-03-22T01:21:26;98771.72;;;10.64;68.79
13235;BME280;6683;48.506;9.050;2024-03-22T01:24:28;98776.19;;;10.64;68.78
13235;BME280;6683;48.506;9.050;2024-03-22T01:27:32;98765.97;;;10.61;68.84
13235;BME280;6683;48.506;9.050;2024-03-22T01:30:34;98762.84;;;10.57;68.83
13235;BME280;6683;48.506;9.050;2024-03-22T01:33:37;98761.38;;;10.55;68.75
13235;BME280;6683;48.506;9.050;2024-03-22T01:36:39;98758.25;;;10.51;68.68
13235;BME280;6683;48.506;9.050;2024-03-22T01:39:41;98754.47;;;10.45;68.40
13235;BME280;6683;48.506;9.050;2024-03-22T01:42:43;98754.19;;;10.40;68.74
13235;BME280;6683;48.506;9.050;2024-03-22T01:45:46;98751.41;;;10.34;68.70
13235;BME280;6683;48.506;9.050;2024-03-22T01:48:47;98744.00;;;10.29;68.89
13235;BME280;6683;48.506;9.050;2024-03-22T01:51:50;98739.06;;;10.26;68.87
13235;BME280;6683;48.506;9.050;2024-03-22T01:54:51;98738.41;;;10.24;68.87
13235;BME280;6683;48.506;9.050;2024-03-22T01:57:55;98743.56;;;10.18;68.88
13235;BME280;6683;48.506;9.050;2024-03-22T02:00:57;98737.13;;;10.12;68.46
13235;BME280;6683;48.506;9.050;2024-03-22T02:03:59;98734.97;;;10.08;68.97
13235;BME280;6683;48.506;9.050;2024-03-22T02:07:01;98736.66;;;10.01;68.68
13235;BME280;6683;48.506;9.050;2024-03-22T02:10:02;98735.84;;;9.92;68.61
13235;BME280;6683;48.506;9.050;2024-03-22T02:13:06;98742.97;;;9.84;68.53
13235;BME280;6683;48.506;9.050;2024-03-22T02:16:08;98739.19;;;9.78;68.60
13235;BME280;6683;48.506;9.050;2024-03-22T02:19:09;98737.06;;;9.74;68.65
13235;BME280;6683;48.506;9.050;2024-03-22T02:22:12;98735.88;;;9.68;68.90
13235;BME280;6683;48.506;9.050;2024-03-22T02:25:14;98731.28;;;9.62;68.94
13235;BME280;6683;48.506;9.050;2024-03-22T02:28:17;98729.16;;;9.57;68.72
13235;BME280;6683;48.506;9.050;2024-03-22T02:31:18;98716.50;;;9.53;68.57
13235;BME280;6683;48.506;9.050;2024-03-22T02:34:21;98723.09;;;9.49;68.84
13235;BME280;6683;48.506;9.050;2024-03-22T02:37:22;98720.13;;;9.44;68.97
13235;BME280;6683;48.506;9.050;2024-03-22T02:40:25;98714.69;;;9.37;68.85
13235;BME280;6683;48.506;9.050;2024-03-22T02:43:26;98718.81;;;9.32;68.66
13235;BME280;6683;48.506;9.050;2024-03-22T02:46:29;98712.56;;;9.25;68.96
13235;BME280;6683;48.506;9.050;2024-03-22T02:49:31;98717.34;;;9.21;68.97
13235;BME280;6683;48.506;9.050;2024-03-22T02:52:32;98707.59;;;9.14;68.57
13235;BME280;6683;48.506;9.050;2024-03-22T02:55:40;98706.66;;;9.07;69.21
13235;BME280;6683;48.506;9.050;2024-03-22T02:58:41;98706.16;;;9.03;68.77
13235;BME280;6683;48.506;9.050;2024-03-22T03:01:44;98706.66;;;8.99;68.87
13235;BME280;6683;48.506;9.050;2024-03-22T03:04:45;98706.13;;;8.95;68.84
13235;BME280;6683;48.506;9.050;2024-03-22T03:07:47;98713.19;;;8.86;69.05
13235;BME280;6683;48.506;9.050;2024-03-22T03:10:50;98707.78;;;8.80;68.83
13235;BME280;6683;48.506;9.050;2024-03-22T03:13:52;98706.59;;;8.74;69.14
13235;BME280;6683;48.506;9.050;2024-03-22T03:16:53;98695.41;;;8.72;69.05
13235;BME280;6683;48.506;9.050;2024-03-22T03:19:55;98693.13;;;8.69;69.12
13235;BME280;6683;48.506;9.050;2024-03-22T03:22:57;98692.28;;;8.69;69.23
13235;BME280;6683;48.506;9.050;2024-03-22T03:26:01;98704.97;;;8.65;69.13
13235;BME280;6683;48.506;9.050;2024-03-22T03:29:04;98708.91;;;8.61;69.05
13235;BME280;6683;48.506;9.050;2024-03-22T03:32:05;98695.75;;;8.61;69.13
13235;BME280;6683;48.506;9.050;2024-03-22T03:35:08;98693.25;;;8.60;69.35
13235;BME280;6683;48.506;9.050;2024-03-22T03:38:09;98698.84;;;8.57;69.13
13235;BME280;6683;48.506;9.050;2024-03-22T03:41:12;98701.78;;;8.54;69.41
13235;BME280;6683;48.506;9.050;2024-03-22T03:44:14;98695.03;;;8.51;69.35
13235;BME280;6683;48.506;9.050;2024-03-22T03:47:16;98680.09;;;8.52;69.51
13235;BME280;6683;48.506;9.050;2024-03-22T03:50:19;98680.25;;;8.50;69.64
13235;BME280;6683;48.506;9.050;2024-03-22T03:53:20;98683.06;;;8.49;69.78
13235;BME280;6683;48.506;9.050;2024-03-22T03:56:24;98689.47;;;8.46;69.50
13235;BME280;6683;48.506;9.050;2024-03-22T03:59:25;98684.19;;;8.46;69.60
13235;BME280;6683;48.506;9.050;2024-03-22T04:02:28;98672.00;;;8.45;69.74
13235;BME280;6683;48.506;9.050;2024-03-22T04:05:29;98669.38;;;8.45;69.81
13235;BME280;6683;48.506;9.050;2024-03-22T04:08:32;98666.91;;;8.44;69.63
13235;BME280;6683;48.506;9.050;2024-03-22T04:11:36;98674.31;;;8.40;69.57
13235;BME280;6683;48.506;9.050;2024-03-22T04:14:38;98677.09;;;8.39;69.83
13235;BME280;6683;48.506;9.050;2024-03-22T04:17:41;98678.91;;;8.38;69.72
13235;BME280;6683;48.506;9.050;2024-03-22T04:20:42;98679.72;;;8.39;69.81
13235;BME280;6683;48.506;9.050;2024-03-22T04:23:44;98673.66;;;8.38;69.85
13235;BME280;6683;48.506;9.050;2024-03-22T04:26:47;98679.88;;;8.37;69.83
13235;BME280;6683;48.506;9.050;2024-03-22T04:29:49;98680.06;;;8.36;69.79
13235;BME280;6683;48.506;9.050;2024-03-22T04:32:50;98669.53;;;8.36;69.75
13235;BME280;6683;48.506;9.050;2024-03-22T04:35:53;98664.44;;;8.34;69.82
13235;BME280;6683;48.506;9.050;2024-03-22T04:38:54;98668.88;;;8.34;69.91
13235;BME280;6683;48.506;9.050;2024-03-22T04:41:58;98673.97;;;8.35;69.96
13235;BME280;6683;48.506;9.050;2024-03-22T04:45:00;98669.53;;;8.36;70.09
13235;BME280;6683;48.506;9.050;2024-03-22T04:48:04;98678.25;;;8.36;70.08
13235;BME280;6683;48.506;9.050;2024-03-22T04:51:05;98678.91;;;8.38;70.21
13235;BME280;6683;48.506;9.050;2024-03-22T04:54:07;98682.22;;;8.40;70.26
13235;BME280;6683;48.506;9.050;2024-03-22T04:57:10;98683.66;;;8.43;70.25
13235;BME280;6683;48.506;9.050;2024-03-22T05:00:14;98672.84;;;8.46;70.37
13235;BME280;6683;48.506;9.050;2024-03-22T05:03:16;98678.59;;;8.49;70.48
13235;BME280;6683;48.506;9.050;2024-03-22T05:06:18;98676.78;;;8.50;70.20
13235;BME280;6683;48.506;9.050;2024-03-22T05:09:21;98680.75;;;8.54;70.35
13235;BME280;6683;48.506;9.050;2024-03-22T05:12:23;98679.91;;;8.53;70.46
13235;BME280;6683;48.506;9.050;2024-03-22T05:15:26;98673.50;;;8.56;70.46
13235;BME280;6683;48.506;9.050;2024-03-22T05:18:28;98673.34;;;8.57;70.54
13235;BME280;6683;48.506;9.050;2024-03-22T05:21:31;98677.47;;;8.60;70.55
13235;BME280;6683;48.506;9.050;2024-03-22T05:24:32;98675.50;;;8.62;70.73
13235;BME280;6683;48.506;9.050;2024-03-22T05:27:36;98673.53;;;8.64;70.71
13235;BME280;6683;48.506;9.050;2024-03-22T05:30:38;98668.25;;;8.64;70.63
13235;BME280;6683;48.506;9.050;2024-03-22T05:33:40;98668.91;;;8.66;70.70
13235;BME280;6683;48.506;9.050;2024-03-22T05:36:42;98672.22;;;8.68;71.01
13235;BME280;6683;48.506;9.050;2024-03-22T05:39:43;98671.06;;;8.70;70.89
13235;BME280;6683;48.506;9.050;2024-03-22T05:42:47;98670.75;;;8.73;70.73
13235;BME280;6683;48.506;9.050;2024-03-22T05:45:48;98664.50;;;8.74;70.90
13235;BME280;6683;48.506;9.050;2024-03-22T05:48:50;98671.06;;;8.78;71.08
13235;BME280;6683;48.506;9.050;2024-03-22T05:51:53;98669.09;;;8.80;71.25
13235;BME280;6683;48.506;9.050;2024-03-22T05:54:55;98660.88;;;8.83;70.99
13235;BME280;6683;48.506;9.050;2024-03-22T05:57:58;98659.56;;;8.88;70.99
13235;BME280;6683;48.506;9.050;2024-03-22T06:01:00;98657.28;;;8.93;71.03
13235;BME280;6683;48.506;9.050;2024-03-22T06:04:01;98651.34;;;8.99;71.24
13235;BME280;6683;48.506;9.050;2024-03-22T06:07:03;98649.03;;;9.04;70.96
13235;BME280;6683;48.506;9.050;2024-03-22T06:10:07;98646.25;;;9.05;70.70
13235;BME280;6683;48.506;9.050;2024-03-22T06:13:11;98644.41;;;9.06;70.71
13235;BME280;6683;48.506;9.050;2024-03-22T06:16:14;98637.34;;;9.06;70.71
13235;BME280;6683;48.506;9.050;2024-03-22T06:19:16;98631.09;;;9.07;70.59
13235;BME280;6683;48.506;9.050;2024-03-22T06:22:18;98632.56;;;9.10;70.67
13235;BME280;6683;48.506;9.050;2024-03-22T06:25:20;98628.78;;;9.12;71.11
13235;BME280;6683;48.506;9.050;2024-03-22T06:28:23;98618.91;;;9.14;70.83
13235;BME280;6683;48.506;9.050;2024-03-22T06:31:25;98630.91;;;9.17;70.82
13235;BME280;6683;48.506;9.050;2024-03-22T06:34:26;98624.00;;;9.24;71.38
13235;BME280;6683;48.506;9.050;2024-03-22T06:37:29;98622.97;;;9.33;71.26
13235;BME280;6683;48.506;9.050;2024-03-22T06:40:33;98619.16;;;9.43;71.47
13235;BME280;6683;48.506;9.050;2024-03-22T06:43:37;98617.16;;;9.53;71.58
13235;BME280;6683;48.506;9.050;2024-03-22T06:46:38;98622.06;;;9.64;72.02
13235;BME280;6683;48.506;9.050;2024-03-22T06:49:41;98623.19;;;9.78;71.55
13235;BME280;6683;48.506;9.050;2024-03-22T06:52:42;98614.56;;;9.92;71.62
13235;BME280;6683;48.506;9.050;2024-03-22T06:55:45;98616.47;;;10.06;71.82
13235;BME280;6683;48.506;9.050;2024-03-22T06:58:48;98617.75;;;10.18;71.86
13235;BME280;6683;48.506;9.050;2024-03-22T07:01:50;98610.91;;;10.32;72.08
13235;BME280;6683;48.506;9.050;2024-03-22T07:04:52;98613.97;;;10.43;71.66
13235;BME280;6683;48.506;9.050;2024-03-22T07:07:54;98612.91;;;10.53;71.86
13235;BME280;6683;48.506;9.050;2024-03-22T07:10:58;98616.97;;;10.63;71.85
13235;BME280;6683;48.506;9.050;2024-03-22T07:14:01;98612.59;;;10.70;71.56
13235;BME280;6683;48.506;9.050;2024-03-22T07:17:04;98605.44;;;10.79;71.96
13235;BME280;6683;48.506;9.050;2024-03-22T07:20:07;98615.78;;;10.88;71.96
13235;BME280;6683;48.506;9.050;2024-03-22T07:23:09;98610.88;;;11.00;72.12
13235;BME280;6683;48.506;9.050;2024-03-22T07:26:11;98608.44;;;11.13;72.13
13235;BME280;6683;48.506;9.050;2024-03-22T07:29:14;98611.56;;;11.31;71.88
13235;BME280;6683;48.506;9.050;2024-03-22T07:32:16;98602.47;;;11.48;72.12
13235;BME280;6683;48.506;9.050;2024-03-22T07:35:18;98606.84;;;11.70;72.18
13235;BME280;6683;48.506;9.050;2024-03-22T07:38:20;98602.13;;;11.95;72.33
13235;BME280;6683;48.506;9.050;2024-03-22T07:41:22;98593.66;;;12.21;71.87
13235;BME280;6683;48.506;9.050;2024-03-22T07:44:26;98590.59;;;12.38;71.92
13235;BME280;6683;48.506;9.050;2024-03-22T07:47:29;98592.41;;;12.59;71.78
13235;BME280;6683;48.506;9.050;2024-03-22T07:50:32;98582.59;;;12.74;71.79
13235;BME280;6683;48.506;9.050;2024-03-22T07:53:34;98589.63;;;12.88;72.05
13235;BME280;6683;48.506;9.050;2024-03-22T07:56:35;98584.69;;;13.06;72.06
13235;BME280;6683;48.506;9.050;2024-03-22T07:59:39;98585.84;;;13.25;72.21
13235;BME280;6683;48.506;9.050;2024-03-22T08:02:42;98584.78;;;13.47;72.12
13235;BME280;6683;48.506;9.050;2024-03-22T08:05:44;98580.81;;;13.64;71.89
13235;BME280;6683;48.506;9.050;2024-03-22T08:08:45;98573.09;;;13.76;71.21
13235;BME280;6683;48.506;9.050;2024-03-22T08:11:47;98565.75;;;13.78;70.99
13235;BME280;6683;48.506;9.050;2024-03-22T08:14:51;98568.63;;;13.76;70.80
13235;BME280;6683;48.506;9.050;2024-03-22T08:17:53;98569.41;;;13.70;70.86
13235;BME280;6683;48.506;9.050;2024-03-22T08:20:58;98563.03;;;13.64;70.87
13235;BME280;6683;48.506;9.050;2024-03-22T08:23:59;98564.09;;;13.70;71.56
13235;BME280;6683;48.506;9.050;2024-03-22T08:27:02;98560.06;;;13.81;71.67
13235;BME280;6683;48.506;9.050;2024-03-22T08:30:06;98561.56;;;13.96;71.74
13235;BME280;6683;48.506;9.050;2024-03-22T08:33:10;98559.34;;;14.13;71.30
13235;BME280;6683;48.506;9.050;2024-03-22T08:36:12;98555.16;;;14.31;71.31
13235;BME280;6683;48.506;9.050;2024-03-22T08:39:14;98559.06;;;14.55;71.16
13235;BME280;6683;48.506;9.050;2024-03-22T08:42:17;98552.34;;;14.79;71.11
13235;BME280;6683;48.506;9.050;2024-03-22T08:45:19;98547.63;;;15.00;70.84
13235;BME280;6683;48.506;9.050;2024-03-22T08:48:21;98536.97;;;15.27;70.70
13235;BME280;6683;48.506;9.050;2024-03-22T08:51:23;98532.84;;;15.44;70.49
13235;BME280;6683;48.506;9.050;2024-03-22T08:54:25;98526.88;;;15.61;70.57
13235;BME280;6683;48.506;9.050;2024-03-22T08:57:26;98512.69;;;15.80;70.43
13235;BME280;6683;48.506;9.050;2024-03-22T09:00:30;98508.66;;;16.02;70.35
13235;BME280;6683;48.506;9.050;2024-03-22T09:03:32;98509.31;;;16.29;70.45
13235;BME280;6683;48.506;9.050;2024-03-22T09:06:33;98499.94;;;16.58;70.19
13235;BME280;6683;48.506;9.050;2024-03-22T09:09:36;98495.19;;;16.85;69.76
13235;BME280;6683;48.506;9.050;2024-03-22T09:12:37;98487.63;;;17.06;69.26
13235;BME280;6683;48.506;9.050;2024-03-22T09:15:43;98490.66;;;17.28;69.37
13235;BME280;6683;48.506;9.050;2024-03-22T09:18:44;98480.31;;;17.56;68.91
13235;BME280;6683;48.506;9.050;2024-03-22T09:21:46;98482.56;;;17.89;68.72
13235;BME280;6683;48.506;9.050;2024-03-22T09:24:48;98478.03;;;18.19;68.33
13235;BME280;6683;48.506;9.050;2024-03-22T09:27:49;98473.72;;;18.48;67.74
13235;BME280;6683;48.506;9.050;2024-03-22T09:30:53;98465.03;;;18.75;67.29
13235;BME280;6683;48.506;9.050;2024-03-22T09:33:54;98468.06;;;19.02;66.96
13235;BME280;6683;48.506;9.050;2024-03-22T09:36:56;98463.84;;;19.29;66.69
13235;BME280;6683;48.506;9.050;2024-03-22T09:39:58;98455.81;;;19.52;66.26
13235;BME280;6683;48.506;9.050;2024-03-22T09:43:02;98443.25;;;19.69;65.83
13235;BME280;6683;48.506;9.050;2024-03-22T09:46:06;98432.84;;;19.84;65.31
13235;BME280;6683;48.506;9.050;2024-03-22T09:49:10;98426.47;;;20.02;64.87
13235;BME280;6683;48.506;9.050;2024-03-22T09:52:13;98433.41;;;20.15;64.44
13235;BME280;6683;48.506;9.050;2024-03-22T09:55:15;98420.84;;;20.32;64.21
13235;BME280;6683;48.506;9.050;2024-03-22T09:58:17;98428.25;;;20.58;63.88
13235;BME280;6683;48.506;9.050;2024-03-22T10:01:20;98421.56;;;20.77;63.15
13235;BME280;6683;48.506;9.050;2024-03-22T10:04:22;98417.91;;;20.83;62.80
13235;BME280;6683;48.506;9.050;2024-03-22T10:07:24;98414.31;;;20.94;62.36
13235;BME280;6683;48.506;9.050;2024-03-22T10:10:26;98411.44;;;21.01;61.87
13235;BME280;6683;48.506;9.050;2024-03-22T10:13:28;98409.69;;;21.06;61.74
13235;BME280;6683;48.506;9.050;2024-03-22T10:16:34;98405.00;;;21.18;61.36
13235;BME280;6683;48.506;9.050;2024-03-22T10:19:36;98396.41;;;21.38;60.89
13235;BME280;6683;48.506;9.050;2024-03-22T10:22:37;98388.56;;;21.58;60.52
13235;BME280;6683;48.506;9.050;2024-03-22T10:25:40;98386.50;;;21.65;59.99
13235;BME280;6683;48.506;9.050;2024-03-22T10:28:44;98379.78;;;21.68;59.61
13235;BME280;6683;48.506;9.050;2024-03-22T10:31:50;98374.97;;;21.70;59.26
13235;BME280;6683;48.506;9.050;2024-03-22T10:34:52;98376.06;;;21.69;58.13
13235;BME280;6683;48.506;9.050;2024-03-22T10:37:55;98370.97;;;21.72;58.56
13235;BME280;6683;48.506;9.050;2024-03-22T10:40:57;98364.34;;;21.80;58.09
13235;BME280;6683;48.506;9.050;2024-03-22T10:43:59;98350.50;;;21.93;58.01
13235;BME280;6683;48.506;9.050;2024-03-22T10:47:01;98342.03;;;22.06;57.76
13235;BME280;6683;48.506;9.050;2024-03-22T10:50:08;98336.44;;;22.12;57.16
13235;BME280;6683;48.506;9.050;2024-03-22T10:53:15;98327.13;;;22.25;57.14
13235;BME280;6683;48.506;9.050;2024-03-22T10:56:21;98325.34;;;22.41;56.89
13235;BME280;6683;48.506;9.050;2024-03-22T10:59:24;98321.19;;;22.60;56.53
13235;BME280;6683;48.506;9.050;2024-03-22T11:02:30;98314.56;;;22.77;56.21
13235;BME280;6683;48.506;9.050;2024-03-22T11:05:31;98305.53;;;22.98;55.90
13235;BME280;6683;48.506;9.050;2024-03-22T11:08:33;98291.56;;;23.12;55.54
13235;BME280;6683;48.506;9.050;2024-03-22T11:11:35;98297.50;;;23.19;54.74
13235;BME280;6683;48.506;9.050;2024-03-22T11:14:38;98290.53;;;23.23;55.04
13235;BME280;6683;48.506;9.050;2024-03-22T11:17:41;98288.44;;;23.40;54.30
13235;BME280;6683;48.506;9.050;2024-03-22T11:20:44;98285.22;;;23.58;54.16
13235;BME280;6683;48.506;9.050;2024-03-22T11:23:46;98281.47;;;23.79;53.95
13235;BME280;6683;48.506;9.050;2024-03-22T11:26:48;98284.16;;;23.99;53.77
13235;BME280;6683;48.506;9.050;2024-03-22T11:29:50;98270.97;;;24.18;53.22
13235;BME280;6683;48.506;9.050;2024-03-22T11:32:54;98263.13;;;24.31;52.37
13235;BME280;6683;48.506;9.050;2024-03-22T11:35:58;98263.13;;;24.46;52.26
13235;BME280;6683;48.506;9.050;2024-03-22T11:38:59;98254.41;;;24.65;51.68
13235;BME280;6683;48.506;9.050;2024-03-22T11:42:03;98243.31;;;24.71;51.20
13235;BME280;6683;48.506;9.050;2024-03-22T11:45:08;98242.00;;;24.74;51.07
13235;BME280;6683;48.506;9.050;2024-03-22T11:48:11;98227.69;;;24.78;50.81
13235;BME280;6683;48.506;9.050;2024-03-22T11:51:14;98235.50;;;24.80;50.69
13235;BME280;6683;48.506;9.050;2024-03-22T11:54:15;98224.16;;;24.73;50.30
13235;BME280;6683;48.506;9.050;2024-03-22T11:57:17;98220.41;;;24.64;49.70
13235;BME280;6683;48.506;9.050;2024-03-22T12:00:19;98218.84;;;24.52;49.45
13235;BME280;6683;48.506;9.050;2024-03-22T12:03:24;98218.31;;;24.50;49.82
13235;BME280;6683;48.506;9.050;2024-03-22T12:06:26;98209.91;;;24.52;49.86
13235;BME280;6683;48.506;9.050;2024-03-22T12:09:29;98207.75;;;24.54;49.43
13235;BME280;6683;48.506;9.050;2024-03-22T12:12:30;98201.03;;;24.46;49.33
13235;BME280;6683;48.506;9.050;2024-03-22T12:15:32;98191.88;;;24.37;49.54
13235;BME280;6683;48.506;9.050;2024-03-22T12:18:34;98181.34;;;24.41;49.44
13235;BME280;6683;48.506;9.050;2024-03-22T12:21:37;98182.66;;;24.53;49.16
13235;BME280;6683;48.506;9.050;2024-03-22T12:24:38;98169.69;;;24.60;48.63
13235;BME280;6683;48.506;9.050;2024-03-22T12:27:40;98166.44;;;24.64;48.36
13235;BME280;6683;48.506;9.050;2024-03-22T12:30:41;98151.84;;;24.59;48.37
13235;BME280;6683;48.506;9.050;2024-03-22T12:33:44;98154.81;;;24.63;48.30
13235;BME280;6683;48.506;9.050;2024-03-22T12:36:45;98144.03;;;24.63;48.15
13235;BME280;6683;48.506;9.050;2024-03-22T12:39:48;98135.41;;;24.61;48.25
13235;BME280;6683;48.506;9.050;2024-03-22T12:42:50;98132.97;;;24.59;48.32
13235;BME280;6683;48.506;9.050;2024-03-22T12:45:52;98125.38;;;24.61;48.19
13235;BME280;6683;48.506;9.050;2024-03-22T12:48:54;98122.19;;;24.54;47.75
13235;BME280;6683;48.506;9.050;2024-03-22T12:51:56;98115.22;;;24.43;47.98
13235;BME280;6683;48.506;9.050;2024-03-22T12:54:57;98112.56;;;24.38;47.82
13235;BME280;6683;48.506;9.050;2024-03-22T12:57:59;98105.03;;;24.35;47.65
13235;BME280;6683;48.506;9.050;2024-03-22T13:01:00;98097.22;;;24.34;47.79
13235;BME280;6683;48.506;9.050;2024-03-22T13:04:05;98097.22;;;24.34;47.45
13235;BME280;6683;48.506;9.050;2024-03-22T13:07:06;98083.44;;;24.30;47.41
13235;BME280;6683;48.506;9.050;2024-03-22T13:10:09;98078.88;;;24.31;47.38
13235;BME280;6683;48.506;9.050;2024-03-22T13:13:11;98068.91;;;24.26;46.93
13235;BME280;6683;48.506;9.050;2024-03-22T13:16:15;98060.31;;;24.19;47.14
13235;BME280;6683;48.506;9.050;2024-03-22T13:19:18;98061.69;;;24.12;46.96
13235;BME280;6683;48.506;9.050;2024-03-22T13:22:20;98050.13;;;24.06;47.17
13235;BME280;6683;48.506;9.050;2024-03-22T13:25:21;98040.44;;;24.05;47.12
13235;BME280;6683;48.506;9.050;2024-03-22T13:28:23;98040.41;;;24.00;46.84
13235;BME280;6683;48.506;9.050;2024-03-22T13:31:24;98032.34;;;23.95;47.08
13235;BME280;6683;48.506;9.050;2024-03-22T13:34:28;98021.31;;;23.92;46.72
13235;BME280;6683;48.506;9.050;2024-03-22T13:37:29;98026.16;;;23.90;46.91
13235;BME280;6683;48.506;9.050;2024-03-22T13:40:31;98014.31;;;23.86;47.07
13235;BME280;6683;48.506;9.050;2024-03-22T13:43:32;98011.38;;;23.82;46.98
13235;BME280;6683;48.506;9.050;2024-03-22T13:46:35;98008.16;;;23.80;46.60
13235;BME280;6683;48.506;9.050;2024-03-22T13:49:38;97995.22;;;23.77;46.45
13235;BME280;6683;48.506;9.050;2024-03-22T13:52:42;97981.19;;;23.75;46.44
13235;BME280;6683;48.506;9.050;2024-03-22T13:55:43;97990.09;;;23.75;46.24
13235;BME280;6683;48.506;9.050;2024-03-22T13:58:45;97980.38;;;23.79;46.17
13235;BME280;6683;48.506;9.050;2024-03-22T14:01:47;97977.41;;;23.81;46.17
13235;BME280;6683;48.506;9.050;2024-03-22T14:04:51;97969.03;;;23.82;46.24
13235;BME280;6683;48.506;9.050;2024-03-22T14:07:53;97964.16;;;23.84;45.70
13235;BME280;6683;48.506;9.050;2024-03-22T14:10:55;97962.81;;;23.87;45.67
13235;BME280;6683;48.506;9.050;2024-03-22T14:13:57;97953.09;;;23.91;45.12
13235;BME280;6683;48.506;9.050;2024-03-22T14:16:58;97955.53;;;23.93;45.00
13235;BME280;6683;48.506;9.050;2024-03-22T14:20:04;97957.13;;;23.94;45.17
13235;BME280;6683;48.506;9.050;2024-03-22T14:23:11;97957.38;;;23.97;44.94
13235;BME280;6683;48.506;9.050;2024-03-22T14:26:13;97949.81;;;23.99;45.11
13235;BME280;6683;48.506;9.050;2024-03-22T14:29:14;97944.16;;;24.01;45.04
13235;BME280;6683;48.506;9.050;2024-03-22T14:32:16;97941.16;;;24.02;44.47
13235;BME280;6683;48.506;9.050;2024-03-22T14:35:19;97940.06;;;24.03;44.16
13235;BME280;6683;48.506;9.050;2024-03-22T14:38:22;97930.66;;;24.06;44.28
13235;BME280;6683;48.506;9.050;2024-03-22T14:41:24;97929.88;;;24.05;44.25
13235;BME280;6683;48.506;9.050;2024-03-22T14:44:26;97921.78;;;24.05;44.12
13235;BME280;6683;48.506;9.050;2024-03-22T14:47:27;97920.97;;;24.05;43.73
13235;BME280;6683;48.506;9.050;2024-03-22T14:50:35;97911.25;;;24.04;43.85
13235;BME280;6683;48.506;9.050;2024-03-22T14:53:37;97915.81;;;24.03;43.77
13235;BME280;6683;48.506;9.050;2024-03-22T14:56:39;97906.13;;;24.02;43.67
13235;BME280;6683;48.506;9.050;2024-03-22T14:59:41;97907.47;;;24.00;43.45
13235;BME280;6683;48.506;9.050;2024-03-22T15:02:43;97906.72;;;23.94;43.33
13235;BME280;6683;48.506;9.050;2024-03-22T15:05:46;97899.47;;;23.84;43.59
13235;BME280;6683;48.506;9.050;2024-03-22T15:08:47;97894.66;;;23.76;43.93
13235;BME280;6683;48.506;9.050;2024-03-22T15:11:50;97895.81;;;23.65;43.67
13235;BME280;6683;48.506;9.050;2024-03-22T15:14:54;97890.22;;;23.57;43.77
13235;BME280;6683;48.506;9.050;2024-03-22T15:17:56;97887.53;;;23.52;43.72
13235;BME280;6683;48.506;9.050;2024-03-22T15:20:59;97881.06;;;23.48;43.74
13235;BME280;6683;48.506;9.050;2024-03-22T15:24:01;97878.94;;;23.45;43.91
13235;BME280;6683;48.506;9.050;2024-03-22T15:27:02;97869.25;;;23.44;44.09
13235;BME280;6683;48.506;9.050;2024-03-22T15:30:06;97871.41;;;23.42;43.99
13235;BME280;6683;48.506;9.050;2024-03-22T15:33:08;97873.03;;;23.38;44.53
13235;BME280;6683;48.506;9.050;2024-03-22T15:36:12;97865.50;;;23.35;44.99
13235;BME280;6683;48.506;9.050;2024-03-22T15:39:13;97857.44;;;23.30;44.91
13235;BME280;6683;48.506;9.050;2024-03-22T15:42:15;97856.63;;;23.24;44.55
13235;BME280;6683;48.506;9.050;2024-03-22T15:45:18;97858.25;;;23.20;44.67
13235;BME280;6683;48.506;9.050;2024-03-22T15:48:23;97853.44;;;23.17;44.87
13235;BME280;6683;48.506;9.050;2024-03-22T15:51:27;97849.41;;;23.10;44.56
13235;BME280;6683;48.506;9.050;2024-03-22T15:54:29;97840.28;;;23.05;44.83
13235;BME280;6683;48.506;9.050;2024-03-22T15:57:31;97848.91;;;23.02;44.79
13235;BME280;6683;48.506;9.050;2024-03-22T16:00:33;97848.91;;;22.97;44.79
13235;BME280;6683;48.506;9.050;2024-03-22T16:03:35;97846.78;;;22.89;44.37
13235;BME280;6683;48.506;9.050;2024-03-22T16:06:39;97848.44;;;22.80;44.31
13235;BME280;6683;48.506;9.050;2024-03-22T16:09:41;97841.19;;;22.71;44.45
13235;BME280;6683;48.506;9.050;2024-03-22T16:12:42;97835.56;;;22.62;44.53
13235;BME280;6683;48.506;9.050;2024-03-22T16:15:45;97829.59;;;22.55;44.37
13235;BME280;6683;48.506;9.050;2024-03-22T16:18:46;97831.78;;;22.48;44.49
13235;BME280;6683;48.506;9.050;2024-03-22T16:21:50;97821.59;;;22.40;43.99
13235;BME280;6683;48.506;9.050;2024-03-22T16:24:51;97825.59;;;22.33;43.95